Time;durP1;ratioP1;P1;durP2;ratioP2;P2;SDS_P1;SDS_P2;PMS_P1;PMS_P2;Temp;Humidity;BMP_temperature;BMP_pressure;BME280_temperature;BME280_humidity;BME280_pressure;Samples;Min_cycle;Max_cycle;Signal;HPM_P1;HPM_P2
2024/04/06 00:00:21;;;;;;;4.03;2.93;;;;;;;14.97;80.39;98085.25;5081079;28;20556;-80
2024/04/06 00:02:48;;;;;;;4.50;2.60;;;;;;;14.95;80.69;98092.53;5080826;28;20238;-80
2024/04/06 00:05:14;;;;;;;3.10;2.43;;;;;;;14.99;80.62;98080.66;5062652;28;20203;-80
2024/04/06 00:07:42;;;;;;;3.53;2.50;;;;;;;14.95;81.02;98084.53;5080832;28;20211;-81
2024/04/06 00:10:07;;;;;;;3.30;2.60;;;;;;;14.93;81.31;98083.00;5080785;28;20223;-80
2024/04/06 00:12:34;;;;;;;3.43;2.40;;;;;;;14.88;80.41;98077.22;5081922;28;20240;-81
2024/04/06 00:14:59;;;;;;;5.20;3.23;;;;;;;14.82;79.76;98075.09;5084425;28;20284;-80
2024/04/06 00:17:27;;;;;;;4.40;2.90;;;;;;;14.78;80.22;98079.03;5084369;28;20215;-80
2024/04/06 00:19:52;;;;;;;4.50;2.60;;;;;;;14.69;81.42;98082.47;5084155;28;20223;-80
2024/04/06 00:22:19;;;;;;;3.53;2.80;;;;;;;14.58;83.27;98093.16;5093551;28;20595;-80
2024/04/06 00:24:46;;;;;;;5.47;3.00;;;;;;;14.52;84.47;98089.22;5094421;28;20217;-81
2024/04/06 00:27:12;;;;;;;4.17;3.10;;;;;;;14.55;84.19;98090.78;5093842;28;20214;-80
2024/04/06 00:29:38;;;;;;;4.47;3.00;;;;;;;14.59;83.79;98084.22;5093786;28;20810;-80
2024/04/06 00:32:05;;;;;;;4.73;2.93;;;;;;;14.68;82.87;98076.31;5089178;28;20211;-80
2024/04/06 00:34:31;;;;;;;3.67;2.90;;;;;;;14.75;83.00;98084.59;5088473;28;20220;-80
2024/04/06 00:37:01;;;;;;;4.80;3.20;;;;;;;14.79;82.55;98086.00;5088035;28;20271;-81
2024/04/06 00:39:26;;;;;;;3.70;3.13;;;;;;;14.83;81.74;98090.06;5087222;28;20227;-81
2024/04/06 00:41:54;;;;;;;4.27;3.20;;;;;;;14.76;81.81;98091.59;5087771;28;20221;-81
2024/04/06 00:44:22;;;;;;;5.53;3.50;;;;;;;14.76;82.33;98102.22;5087975;28;20614;-81
2024/04/06 00:46:49;;;;;;;4.87;3.20;;;;;;;14.67;83.40;98109.19;5087632;28;20630;-81
2024/04/06 00:49:15;;;;;;;4.70;3.60;;;;;;;14.60;85.07;98117.84;5087613;28;20208;-81
2024/04/06 00:51:41;;;;;;;4.97;2.77;;;;;;;14.53;85.52;98117.50;5087429;28;20210;-81
2024/04/06 00:54:07;;;;;;;4.23;2.93;;;;;;;14.51;86.20;98123.94;5086979;28;20217;-81
2024/04/06 00:56:34;;;;;;;4.30;3.10;;;;;;;14.46;86.07;98119.00;5086745;28;20246;-81
2024/04/06 00:59:01;;;;;;;5.17;2.93;;;;;;;14.39;84.63;98112.53;5085882;28;20206;-81
2024/04/06 01:01:27;;;;;;;3.50;2.57;;;;;;;14.30;82.72;98104.50;5084870;28;20226;-81
2024/04/06 01:03:53;;;;;;;3.63;2.93;;;;;;;14.29;83.82;98108.13;5084925;28;20208;-80
2024/04/06 01:06:20;;;;;;;4.50;3.00;;;;;;;14.17;84.49;98119.75;5084774;28;20199;-81
2024/04/06 01:08:46;;;;;;;4.10;2.70;;;;;;;14.11;85.31;98117.63;5085826;28;20230;-80
2024/04/06 01:11:12;;;;;;;4.77;2.90;;;;;;;13.98;85.97;98114.25;5084922;28;20247;-80
2024/04/06 01:13:38;;;;;;;4.57;2.77;;;;;;;13.94;85.53;98118.16;5084811;28;20215;-80
2024/04/06 01:16:06;;;;;;;3.23;2.63;;;;;;;13.88;86.01;98118.66;5084171;28;20295;-81
2024/04/06 01:18:32;;;;;;;3.87;2.83;;;;;;;13.83;86.87;98115.53;5084475;28;20214;-80
2024/04/06 01:21:00;;;;;;;5.93;2.70;;;;;;;13.75;87.39;98121.47;5083189;28;20239;-80
2024/04/06 01:23:26;;;;;;;3.13;2.57;;;;;;;13.71;88.45;98124.53;5082301;28;20211;-80
2024/04/06 01:25:54;;;;;;;5.03;2.87;;;;;;;13.62;89.65;98128.75;5083456;28;20230;-80
2024/04/06 01:28:19;;;;;;;3.50;2.67;;;;;;;13.53;90.72;98133.97;5083915;28;20208;-80
2024/04/06 01:30:46;;;;;;;3.83;3.10;;;;;;;13.44;91.37;98134.75;5083336;28;20326;-80
2024/04/06 01:33:11;;;;;;;3.80;2.77;;;;;;;13.36;92.13;98138.00;5083936;28;20208;-79
2024/04/06 01:35:38;;;;;;;5.00;2.90;;;;;;;13.32;93.19;98139.19;5083003;28;20322;-81
2024/04/06 01:38:03;;;;;;;5.27;3.00;;;;;;;13.24;93.96;98138.13;5083836;28;20207;-81
2024/04/06 01:40:31;;;;;;;4.13;2.93;;;;;;;13.18;94.25;98135.94;5082768;28;20265;-83
2024/04/06 01:42:58;;;;;;;6.37;3.43;;;;;;;13.12;95.63;98139.09;5082962;28;20275;-81
2024/04/06 01:45:24;;;;;;;4.17;3.10;;;;;;;13.16;94.98;98143.19;5083646;28;20260;-81
2024/04/06 01:47:50;;;;;;;5.00;3.00;;;;;;;13.12;96.01;98142.59;5083397;28;20593;-81
2024/04/06 01:50:16;;;;;;;5.70;3.37;;;;;;;13.09;95.53;98136.69;5083573;28;20258;-81
2024/04/06 01:52:42;;;;;;;6.80;3.80;;;;;;;13.03;95.50;98139.84;5083619;28;20214;-80
2024/04/06 01:55:08;;;;;;;5.87;3.43;;;;;;;13.02;95.84;98138.16;5086768;28;20254;-81
2024/04/06 01:57:34;;;;;;;4.53;3.30;;;;;;;12.95;96.45;98136.91;5086981;28;20210;-81
2024/04/06 02:00:04;;;;;;;4.40;3.37;;;;;;;12.97;95.96;98137.66;5084719;28;20356;-81
2024/04/06 02:02:29;;;;;;;4.13;3.20;;;;;;;12.97;95.97;98124.41;5084942;28;20216;-81
2024/04/06 02:04:56;;;;;;;4.53;3.30;;;;;;;12.95;96.42;98131.63;5084293;28;20208;-81
2024/04/06 02:07:21;;;;;;;6.17;3.43;;;;;;;12.93;96.63;98123.78;5083883;28;20317;-81
2024/04/06 02:09:48;;;;;;;4.23;3.20;;;;;;;12.92;96.09;98122.09;5083740;28;20322;-81
2024/04/06 02:12:14;;;;;;;4.30;3.00;;;;;;;12.86;96.82;98116.41;5083169;28;20214;-80
2024/04/06 02:14:40;;;;;;;4.17;3.10;;;;;;;12.81;98.02;98126.53;5083337;28;20214;-81
2024/04/06 02:17:07;;;;;;;5.27;3.17;;;;;;;12.79;97.68;98121.34;5081681;28;20238;-81
2024/04/06 02:19:34;;;;;;;5.30;3.00;;;;;;;12.74;98.78;98125.31;5081799;28;20266;-80
2024/04/06 02:21:59;;;;;;;4.83;2.97;;;;;;;12.74;98.64;98122.66;5080765;28;20224;-81
2024/04/06 02:24:26;;;;;;;5.07;2.80;;;;;;;12.71;99.02;98114.97;5081673;28;20230;-80
2024/04/06 02:26:51;;;;;;;4.20;2.70;;;;;;;12.72;98.55;98108.69;5081381;28;20214;-81
2024/04/06 02:29:18;;;;;;;4.37;2.77;;;;;;;12.67;99.13;98113.50;5080230;28;20660;-80
2024/04/06 02:31:44;;;;;;;4.17;2.83;;;;;;;12.70;98.88;98106.16;5080233;28;20215;-81
2024/04/06 02:34:12;;;;;;;3.87;2.70;;;;;;;12.71;98.74;98107.84;5080909;28;20558;-81
2024/04/06 02:36:38;;;;;;;3.77;2.43;;;;;;;12.70;98.99;98107.94;5080349;28;20759;-80
2024/04/06 02:39:05;;;;;;;4.63;3.07;;;;;;;12.70;98.69;98105.28;5080986;28;20516;-81
2024/04/06 02:41:30;;;;;;;4.67;2.70;;;;;;;12.68;99.15;98096.63;5081016;28;20205;-81
2024/04/06 02:43:57;;;;;;;4.37;2.70;;;;;;;12.64;99.46;98095.16;5080605;28;20323;-81
2024/04/06 02:46:22;;;;;;;3.60;2.93;;;;;;;12.60;100.00;98104.34;5081178;28;20209;-81
2024/04/06 02:48:49;;;;;;;3.23;2.47;;;;;;;12.55;100.00;98106.50;5080626;28;20232;-81
2024/04/06 02:51:16;;;;;;;4.03;2.70;;;;;;;12.52;100.00;98110.22;5080269;28;20237;-81
2024/04/06 02:53:43;;;;;;;3.73;2.90;;;;;;;12.57;100.00;98109.88;5080952;28;20233;-81
2024/04/06 02:56:08;;;;;;;3.03;2.60;;;;;;;12.57;100.00;98109.88;5080062;28;20635;-81
2024/04/06 02:58:35;;;;;;;3.63;2.73;;;;;;;12.60;100.00;98109.66;5079770;28;20217;-81
2024/04/06 03:01:01;;;;;;;5.07;3.20;;;;;;;12.62;100.00;98110.34;5079188;28;20234;-81
2024/04/06 03:03:27;;;;;;;5.03;3.10;;;;;;;12.65;100.00;98112.78;5080680;28;20573;-81
2024/04/06 03:05:53;;;;;;;5.27;2.90;;;;;;;12.68;100.00;98113.38;5080392;28;20216;-81
2024/04/06 03:08:21;;;;;;;5.10;3.13;;;;;;;12.71;100.00;98120.28;5080170;28;20215;-81
2024/04/06 03:10:46;;;;;;;3.90;3.17;;;;;;;12.68;100.00;98113.38;5080423;28;20237;-81
2024/04/06 03:13:13;;;;;;;4.40;3.00;;;;;;;12.73;100.00;98113.03;5081194;28;20297;-81
2024/04/06 03:15:39;;;;;;;3.70;2.57;;;;;;;12.70;100.00;98113.25;5080372;28;20266;-81
2024/04/06 03:18:05;;;;;;;4.67;2.90;;;;;;;12.72;100.00;98108.69;5081796;28;20221;-81
2024/04/06 03:20:31;;;;;;;4.27;2.80;;;;;;;12.70;100.00;98118.56;5082013;28;20235;-81
2024/04/06 03:23:02;;;;;;;4.70;2.80;;;;;;;12.69;100.00;98116.88;5082530;28;20301;-80
2024/04/06 03:25:30;;;;;;;3.33;2.30;;;;;;;12.67;100.00;98121.47;5091009;28;20250;-81
2024/04/06 03:27:57;;;;;;;5.37;2.60;;;;;;;12.55;100.00;98117.09;5090682;28;20217;-81
2024/04/06 03:30:23;;;;;;;3.77;2.60;;;;;;;12.49;100.00;98117.56;5087639;28;20336;-81
2024/04/06 03:32:50;;;;;;;3.60;2.50;;;;;;;12.44;100.00;98119.72;5085014;28;20214;-81
2024/04/06 03:35:16;;;;;;;2.50;2.30;;;;;;;12.40;100.00;98118.28;5084648;28;20268;-81
2024/04/06 03:37:42;;;;;;;3.63;2.70;;;;;;;12.39;100.00;98119.22;5083129;28;20216;-81
2024/04/06 03:40:10;;;;;;;4.63;3.00;;;;;;;12.38;100.00;98114.91;5082676;28;20703;-81
2024/04/06 03:42:38;;;;;;;4.97;2.67;;;;;;;12.31;100.00;98113.69;5083127;28;20285;-81
2024/04/06 03:45:05;;;;;;;4.03;2.77;;;;;;;12.27;100.00;98123.69;5084621;28;20205;-81
2024/04/06 03:47:31;;;;;;;3.87;2.50;;;;;;;12.20;100.00;98124.25;5085971;28;20233;-81
2024/04/06 03:49:57;;;;;;;4.47;2.33;;;;;;;12.13;100.00;98115.06;5087093;28;20232;-81
2024/04/06 03:52:24;;;;;;;3.10;2.40;;;;;;;12.08;100.00;98111.94;5086641;28;20309;-81
2024/04/06 03:54:49;;;;;;;4.27;2.33;;;;;;;12.05;100.00;98107.69;5086679;28;20210;-80
2024/04/06 03:57:16;;;;;;;3.33;2.23;;;;;;;12.04;100.00;98116.63;5068597;28;20286;-81
2024/04/06 03:59:43;;;;;;;3.53;2.50;;;;;;;12.11;100.00;98103.75;5087500;28;20237;-81
2024/04/06 04:02:09;;;;;;;4.10;2.57;;;;;;;12.10;100.00;98107.38;5086443;28;20216;-81
2024/04/06 04:04:36;;;;;;;6.10;2.23;;;;;;;12.16;100.00;98109.56;5086533;28;20217;-81
2024/04/06 04:07:03;;;;;;;3.27;2.70;;;;;;;12.13;100.00;98115.06;5087159;28;20213;-80
2024/04/06 04:09:29;;;;;;;3.80;2.43;;;;;;;12.11;100.00;98117.00;5085826;28;20226;-80
2024/04/06 04:11:55;;;;;;;4.53;2.83;;;;;;;12.14;100.00;98122.06;5085040;28;20560;-81
2024/04/06 04:14:21;;;;;;;3.10;2.50;;;;;;;12.08;100.00;98118.09;5086258;28;20206;-81
2024/04/06 04:16:48;;;;;;;3.83;2.50;;;;;;;12.00;100.00;98119.63;5085664;28;20230;-81
2024/04/06 04:19:15;;;;;;;3.63;2.67;;;;;;;11.98;100.00;98132.13;5087668;28;20626;-81
2024/04/06 04:21:40;;;;;;;2.70;2.50;;;;;;;11.91;100.00;98136.19;5088684;28;20233;-81
2024/04/06 04:24:07;;;;;;;3.50;2.53;;;;;;;11.84;100.00;98125.22;5088633;28;20273;-81
2024/04/06 04:26:33;;;;;;;3.20;2.60;;;;;;;11.82;100.00;98126.28;5088398;28;20207;-80
2024/04/06 04:28:59;;;;;;;3.37;2.50;;;;;;;11.87;100.00;98126.78;5086554;28;20278;-82
2024/04/06 04:31:25;;;;;;;5.40;2.80;;;;;;;11.85;100.00;98120.75;5085805;28;20231;-83
2024/04/06 04:33:53;;;;;;;3.13;2.60;;;;;;;11.84;100.00;98127.00;5086300;28;20241;-82
2024/04/06 04:36:19;;;;;;;2.83;2.43;;;;;;;11.84;100.00;98127.84;5085099;28;20265;-81
2024/04/06 04:38:45;;;;;;;3.67;2.67;;;;;;;11.79;100.00;98135.28;5085779;28;20221;-81
2024/04/06 04:41:11;;;;;;;2.47;2.27;;;;;;;11.76;100.00;98132.03;5085496;28;20236;-81
2024/04/06 04:43:38;;;;;;;3.83;2.50;;;;;;;11.73;100.00;98137.56;5085681;28;20589;-81
2024/04/06 04:46:04;;;;;;;4.43;2.63;;;;;;;11.70;100.00;98138.63;5086189;28;20206;-81
2024/04/06 04:48:56;;;;;;;3.00;2.33;;;;;;;11.64;100.00;98144.38;5085965;28;20238;-81
2024/04/06 04:51:22;;;;;;;3.33;2.23;;;;;;;11.56;100.00;98149.34;5084831;28;20266;-81
2024/04/06 04:53:49;;;;;;;3.50;3.07;;;;;;;11.50;100.00;98151.59;5084594;28;20281;-81
2024/04/06 04:56:14;;;;;;;2.73;2.50;;;;;;;11.52;100.00;98150.53;5084825;28;20239;-81
2024/04/06 04:58:41;;;;;;;3.10;2.40;;;;;;;11.49;100.00;98149.91;5085249;28;20292;-81
2024/04/06 05:01:06;;;;;;;3.77;2.63;;;;;;;11.46;100.00;98150.97;5084678;28;20230;-81
2024/04/06 05:03:34;;;;;;;3.17;2.47;;;;;;;11.42;100.00;98156.59;5084872;28;20806;-81
2024/04/06 05:06:01;;;;;;;3.00;2.67;;;;;;;11.40;100.00;98155.84;5084911;28;20211;-81
2024/04/06 05:08:28;;;;;;;4.53;2.47;;;;;;;11.37;100.00;98166.69;5084725;28;20215;-81
2024/04/06 05:10:55;;;;;;;3.50;2.67;;;;;;;11.39;100.00;98164.75;5083828;28;20236;-81
2024/04/06 05:13:21;;;;;;;2.67;2.47;;;;;;;11.42;100.00;98167.16;5083692;28;20208;-82
2024/04/06 05:15:48;;;;;;;5.63;2.70;;;;;;;11.46;100.00;98163.34;5081951;28;20232;-81
2024/04/06 05:18:14;;;;;;;5.80;2.50;;;;;;;11.47;100.00;98168.53;5082726;28;20216;-80
2024/04/06 05:20:40;;;;;;;3.17;2.47;;;;;;;11.45;100.00;98161.66;5082229;28;20234;-81
2024/04/06 05:23:07;;;;;;;3.47;2.40;;;;;;;11.45;100.00;98172.25;5082732;28;20228;-81
2024/04/06 05:25:34;;;;;;;3.30;2.53;;;;;;;11.50;100.00;98178.06;5082692;28;20298;-80
2024/04/06 05:27:59;;;;;;;4.20;2.47;;;;;;;11.55;100.00;98173.28;5082240;28;20224;-80
2024/04/06 05:30:26;;;;;;;2.80;2.40;;;;;;;11.60;100.00;98171.16;5081617;28;20830;-80
2024/04/06 05:32:54;;;;;;;3.23;2.37;;;;;;;11.66;100.00;98165.41;5081771;28;20217;-81
2024/04/06 05:35:21;;;;;;;3.57;2.90;;;;;;;11.74;100.00;98163.09;5082588;28;20253;-80
2024/04/06 05:37:46;;;;;;;4.97;2.43;;;;;;;11.78;100.00;98172.47;5081430;28;20230;-81
2024/04/06 05:40:14;;;;;;;3.80;2.40;;;;;;;11.82;100.00;98177.47;5082299;28;20323;-81
2024/04/06 05:42:40;;;;;;;2.83;2.30;;;;;;;11.82;100.00;98184.53;5082166;28;20212;-81
2024/04/06 05:45:07;;;;;;;3.30;2.30;;;;;;;11.88;100.00;98194.69;5082104;28;20324;-80
2024/04/06 05:47:33;;;;;;;2.93;2.40;;;;;;;11.97;100.00;98188.69;5082453;28;20293;-80
2024/04/06 05:50:00;;;;;;;3.13;2.40;;;;;;;12.02;100.00;98192.72;5082861;28;20317;-80
2024/04/06 05:52:25;;;;;;;2.90;2.23;;;;;;;12.13;100.00;98194.56;5083848;28;20218;-81
2024/04/06 05:54:52;;;;;;;5.67;2.50;;;;;;;12.27;100.00;98187.28;5083812;28;20210;-80
2024/04/06 05:57:19;;;;;;;2.43;2.20;;;;;;;12.37;100.00;98184.78;5084060;28;20230;-80
2024/04/06 05:59:45;;;;;;;2.73;2.10;;;;;;;12.45;100.00;98179.72;5083042;28;20273;-81
2024/04/06 06:02:11;;;;;;;3.70;2.60;;;;;;;12.54;100.00;98173.75;5082677;28;20308;-81
2024/04/06 06:04:37;;;;;;;3.80;2.47;;;;;;;12.62;100.00;98179.28;5082772;28;20233;-80
2024/04/06 06:07:03;;;;;;;4.73;2.30;;;;;;;12.70;100.00;98174.25;5081141;28;20576;-80
2024/04/06 06:09:30;;;;;;;2.43;2.23;;;;;;;12.83;100.00;98165.22;5081131;28;20245;-80
2024/04/06 06:11:56;;;;;;;3.33;2.30;;;;;;;12.96;100.00;98173.94;5080802;28;20213;-81
2024/04/06 06:14:24;;;;;;;2.20;2.00;;;;;;;13.10;100.00;98163.13;5082268;28;20237;-81
2024/04/06 06:16:49;;;;;;;2.50;1.87;;;;;;;13.23;100.00;98162.97;5081352;28;20234;-81
2024/04/06 06:19:16;;;;;;;4.47;2.27;;;;;;;13.36;100.00;98164.53;5081879;28;20320;-81
2024/04/06 06:21:41;;;;;;;3.43;2.17;;;;;;;13.45;99.83;98158.47;5081453;28;20253;-80
2024/04/06 06:24:08;;;;;;;3.37;2.33;;;;;;;13.56;98.96;98155.00;5083094;28;20203;-80
2024/04/06 06:26:33;;;;;;;4.30;2.30;;;;;;;13.67;98.67;98152.28;5090292;28;20210;-81
2024/04/06 06:29:00;;;;;;;2.80;2.20;;;;;;;13.81;98.84;98152.03;5090848;28;20211;-79
2024/04/06 06:31:27;;;;;;;2.67;1.83;;;;;;;13.95;98.30;98152.59;5090018;28;20241;-80
2024/04/06 06:33:55;;;;;;;4.00;2.10;;;;;;;14.05;97.34;98153.50;5088122;28;20263;-82
2024/04/06 06:36:20;;;;;;;3.40;2.20;;;;;;;14.16;96.24;98139.31;5078750;28;20238;-80
2024/04/06 06:38:48;;;;;;;4.73;2.10;;;;;;;14.26;94.59;98145.59;5073188;28;20203;-79
2024/04/06 06:41:14;;;;;;;3.10;2.00;;;;;;;14.35;93.08;98137.69;5081151;28;20334;-79
2024/04/06 06:43:41;;;;;;;2.97;1.80;;;;;;;14.47;91.74;98138.44;5080584;28;20203;-79
2024/04/06 06:46:06;;;;;;;4.07;2.40;;;;;;;14.59;89.97;98126.78;5078922;28;20207;-79
2024/04/06 06:48:34;;;;;;;2.40;1.83;;;;;;;14.69;89.49;98139.19;5079496;28;20343;-79
2024/04/06 06:51:00;;;;;;;2.17;1.80;;;;;;;14.75;88.08;98133.34;5080139;28;20258;-78
2024/04/06 06:53:26;;;;;;;2.50;1.93;;;;;;;14.82;87.71;98136.28;5081831;28;20209;-81
2024/04/06 06:55:52;;;;;;;3.40;2.13;;;;;;;14.86;85.83;98127.91;5079061;28;20213;-81
2024/04/06 06:58:18;;;;;;;3.40;1.93;;;;;;;14.98;82.97;98128.69;5079885;28;20274;-79
2024/04/06 07:00:45;;;;;;;1.97;1.70;;;;;;;15.07;81.98;98125.19;5079774;28;20230;-80
2024/04/06 07:03:12;;;;;;;2.30;1.83;;;;;;;15.22;82.40;98131.88;5077879;28;20231;-79
2024/04/06 07:05:39;;;;;;;2.73;1.87;;;;;;;15.29;82.98;98138.34;5079708;28;20211;-80
2024/04/06 07:08:07;;;;;;;2.23;1.77;;;;;;;15.38;82.46;98140.19;5078406;28;20210;-79
2024/04/06 07:10:37;;;;;;;3.87;1.77;;;;;;;15.46;81.87;98135.06;5073637;28;20689;-79
2024/04/06 07:13:04;;;;;;;2.10;1.80;;;;;;;15.54;81.09;98137.88;5073789;28;20206;-79
2024/04/06 07:15:30;;;;;;;1.60;1.50;;;;;;;15.66;80.00;98126.97;5074454;28;20246;-79
2024/04/06 07:17:57;;;;;;;2.03;1.83;;;;;;;15.77;78.69;98118.84;5074092;28;20609;-79
2024/04/06 07:20:23;;;;;;;2.40;1.77;;;;;;;15.85;77.87;98136.81;5076841;28;20254;-79
2024/04/06 07:22:50;;;;;;;1.70;1.53;;;;;;;16.00;77.62;98138.94;5076530;28;20208;-79
2024/04/06 07:25:16;;;;;;;1.80;1.67;;;;;;;16.08;77.19;98127.56;5077930;28;20218;-79
2024/04/06 07:27:42;;;;;;;1.50;1.37;;;;;;;16.16;77.00;98124.06;5077933;28;20203;-80
2024/04/06 07:30:09;;;;;;;1.73;1.60;;;;;;;16.26;76.51;98116.91;5076866;28;20232;-80
2024/04/06 07:32:35;;;;;;;2.60;1.70;;;;;;;16.36;76.88;98127.56;5077026;28;20253;-80
2024/04/06 07:35:04;;;;;;;1.53;1.43;;;;;;;16.40;76.21;98137.84;5077552;28;20562;-81
2024/04/06 07:37:31;;;;;;;3.07;2.00;;;;;;;16.47;75.35;98146.13;5078002;28;20314;-85
2024/04/06 07:39:58;;;;;;;3.57;1.60;;;;;;;16.56;74.80;98145.25;5079750;28;20223;-86
2024/04/06 07:42:24;;;;;;;2.30;2.00;;;;;;;16.66;74.87;98146.09;5075883;28;20265;-80
2024/04/06 07:44:50;;;;;;;3.27;1.90;;;;;;;16.79;73.27;98142.16;5074144;28;20581;-80
2024/04/06 07:47:16;;;;;;;3.03;1.63;;;;;;;16.85;72.37;98140.72;5074047;28;20203;-81
2024/04/06 07:49:42;;;;;;;3.50;1.70;;;;;;;16.89;72.17;98142.94;5073826;28;20219;-80
2024/04/06 07:52:08;;;;;;;2.17;1.70;;;;;;;17.03;72.22;98144.31;5074326;28;20688;-79
2024/04/06 07:54:34;;;;;;;2.17;1.77;;;;;;;17.10;72.03;98135.59;5073845;28;20218;-79
2024/04/06 07:57:03;;;;;;;2.20;1.73;;;;;;;17.33;73.61;98136.91;5074824;28;20235;-81
2024/04/06 07:59:28;;;;;;;3.27;2.20;;;;;;;17.57;75.95;98161.28;5072997;28;20227;-80
2024/04/06 08:01:55;;;;;;;2.17;1.80;;;;;;;17.67;75.95;98154.03;5074339;28;20215;-80
2024/04/06 08:04:20;;;;;;;3.97;1.93;;;;;;;17.80;75.79;98157.19;5074748;28;20217;-81
2024/04/06 08:06:47;;;;;;;1.73;1.63;;;;;;;17.98;74.83;98151.88;5074346;28;20548;-81
2024/04/06 08:09:12;;;;;;;3.07;1.40;;;;;;;18.12;71.96;98130.81;5073561;28;20217;-80
2024/04/06 08:11:39;;;;;;;5.73;1.80;;;;;;;18.21;71.86;98132.53;5073689;28;20212;-79
2024/04/06 08:14:06;;;;;;;1.93;1.77;;;;;;;18.22;71.47;98141.44;5073880;28;20218;-79
2024/04/06 08:16:34;;;;;;;1.77;1.57;;;;;;;18.23;71.26;98143.94;5073870;28;20231;-79
2024/04/06 08:18:59;;;;;;;2.37;1.70;;;;;;;18.28;70.51;98132.78;5074371;28;20855;-80
2024/04/06 08:21:26;;;;;;;2.07;1.43;;;;;;;18.42;68.39;98113.53;5073365;28;20325;-80
2024/04/06 08:23:51;;;;;;;2.17;1.47;;;;;;;18.50;66.66;98109.09;5073563;28;20221;-79
2024/04/06 08:26:18;;;;;;;2.10;1.53;;;;;;;18.79;67.17;98115.00;5074063;28;20657;-80
2024/04/06 08:28:43;;;;;;;3.30;1.40;;;;;;;19.01;66.64;98109.09;5074739;28;20207;-80
2024/04/06 08:31:11;;;;;;;2.73;1.53;;;;;;;19.20;65.29;98091.94;5073746;28;20244;-80
2024/04/06 08:33:37;;;;;;;1.80;1.40;;;;;;;19.27;65.07;98083.13;5075947;28;20276;-80
2024/04/06 08:36:04;;;;;;;1.83;1.40;;;;;;;19.38;63.05;98066.75;5077407;28;20207;-80
2024/04/06 08:38:29;;;;;;;5.37;1.30;;;;;;;19.50;61.92;98062.78;5076934;28;20227;-79
2024/04/06 08:41:01;;;;;;;2.73;1.67;;;;;;;19.47;60.88;98041.66;5077397;28;20250;-79
2024/04/06 08:43:34;;;;;;;3.03;1.57;;;;;;;19.60;60.26;98036.69;5078323;28;20214;-81
2024/04/06 08:46:01;;;;;;;1.60;1.40;;;;;;;19.78;62.08;98055.31;5080558;28;20298;-82
2024/04/06 08:48:29;;;;;;;1.70;1.50;;;;;;;19.89;61.70;98063.03;5081129;28;20205;-82
2024/04/06 08:50:57;;;;;;;1.50;1.40;;;;;;;19.89;59.16;98034.38;5080573;28;20231;-83
2024/04/06 08:53:23;;;;;;;1.40;1.30;;;;;;;20.00;59.51;98044.75;5081809;28;20203;-83
2024/04/06 08:55:50;;;;;;;1.90;1.40;;;;;;;20.11;61.37;98068.63;5082738;28;20890;-82
2024/04/06 08:58:16;;;;;;;1.43;1.00;;;;;;;20.11;58.98;98036.44;5080360;28;20242;-83
2024/04/06 09:00:43;;;;;;;2.67;1.20;;;;;;;20.17;59.44;98051.84;5060746;28;20581;-82
2024/04/06 09:03:09;;;;;;;3.43;1.60;;;;;;;20.30;59.53;98054.06;5083955;28;20203;-84
2024/04/06 09:05:43;;;;;;;1.40;1.30;;;;;;;20.58;58.27;98040.09;5087547;28;20225;-85
2024/04/06 09:08:13;;;;;;;1.60;1.40;;;;;;;20.57;57.88;98030.38;5087788;28;20215;-84
2024/04/06 09:13:18;;;;;;;2.27;1.30;;;;;;;20.89;59.58;98046.44;4860076;26;20218;-83
2024/04/06 09:16:33;;;;;;;2.17;1.47;;;;;;;20.84;56.99;98005.78;5102207;28;20207;-85
2024/04/06 09:19:13;;;;;;;2.13;1.30;;;;;;;20.94;58.50;98014.50;5100010;28;20210;-83
2024/04/06 09:21:40;;;;;;;1.73;1.47;;;;;;;21.12;58.22;98017.81;5080967;28;20203;-78
2024/04/06 09:24:07;;;;;;;1.80;1.30;;;;;;;21.12;58.91;98017.81;5081768;28;20272;-78
2024/04/06 09:26:33;;;;;;;3.73;1.40;;;;;;;21.07;56.63;97987.06;5090646;28;20579;-81
2024/04/06 09:29:01;;;;;;;2.27;1.10;;;;;;;21.03;55.56;97991.97;5095748;28;20212;-81
2024/04/06 09:31:28;;;;;;;1.30;1.20;;;;;;;21.07;57.07;98013.94;5089882;28;20227;-81
2024/04/06 09:33:56;;;;;;;1.87;1.40;;;;;;;20.99;56.41;98000.56;5078413;28;20633;-81
2024/04/06 09:36:22;;;;;;;2.47;1.60;;;;;;;21.14;56.70;98005.03;5078369;28;20207;-81
2024/04/06 09:38:50;;;;;;;3.07;1.77;;;;;;;21.32;57.57;98024.44;5077663;28;20226;-81
2024/04/06 09:41:17;;;;;;;4.00;1.60;;;;;;;21.44;58.90;98039.16;5077686;28;20227;-82
2024/04/06 09:43:44;;;;;;;2.67;2.00;;;;;;;21.58;58.89;98032.19;5076851;28;20578;-81
2024/04/06 09:46:11;;;;;;;4.97;2.00;;;;;;;21.61;56.73;98007.63;5076295;28;20207;-81
2024/04/06 09:48:39;;;;;;;2.97;1.60;;;;;;;21.66;55.91;97995.34;5076855;28;20206;-82
2024/04/06 09:51:05;;;;;;;1.90;1.50;;;;;;;21.88;56.86;98007.16;5075999;28;20231;-82
2024/04/06 09:53:32;;;;;;;26.73;6.83;;;;;;;22.06;57.93;98024.66;5075851;28;20211;-82
2024/04/06 09:56:01;;;;;;;9.03;3.63;;;;;;;22.14;55.93;98000.34;5076634;28;20218;-82
2024/04/06 09:58:29;;;;;;;4.83;2.00;;;;;;;22.16;56.13;97990.25;5076743;28;20234;-82
2024/04/06 10:00:55;;;;;;;4.40;1.60;;;;;;;22.34;57.67;98012.31;5077117;28;20645;-82
2024/04/06 10:03:22;;;;;;;2.40;1.50;;;;;;;22.43;58.23;98027.41;5077032;28;20230;-82
2024/04/06 10:05:49;;;;;;;2.37;1.50;;;;;;;22.58;54.56;97970.88;5077096;28;20214;-81
2024/04/06 10:08:17;;;;;;;1.60;1.30;;;;;;;22.58;51.64;97928.59;5077103;28;20207;-82
2024/04/06 10:10:44;;;;;;;2.10;1.43;;;;;;;22.57;52.79;97947.63;5076769;28;20296;-82
2024/04/06 10:13:19;;;;;;;3.00;1.40;;;;;;;22.73;54.08;97966.34;5076599;28;20212;-82
2024/04/06 10:15:45;;;;;;;1.73;1.47;;;;;;;22.77;51.93;97935.28;5079069;28;20211;-81
2024/04/06 10:18:11;;;;;;;2.43;1.60;;;;;;;22.81;50.78;97913.16;5078582;28;20234;-82
2024/04/06 10:20:39;;;;;;;2.57;1.30;;;;;;;22.93;52.27;97941.31;5075489;28;20250;-81
2024/04/06 10:23:06;;;;;;;7.80;2.90;;;;;;;23.01;51.68;97941.22;5076447;28;20294;-82
2024/04/06 10:25:34;;;;;;;2.73;1.50;;;;;;;23.08;48.92;97920.56;5075815;28;20217;-82
2024/04/06 10:28:01;;;;;;;2.10;1.47;;;;;;;23.15;48.29;97913.38;5075971;28;20199;-82
2024/04/06 10:30:29;;;;;;;1.53;1.27;;;;;;;23.28;45.08;97927.06;5075904;28;20227;-82
2024/04/06 10:32:55;;;;;;;3.63;1.20;;;;;;;23.32;42.60;97927.50;5075885;28;20212;-82
2024/04/06 10:35:21;;;;;;;1.27;1.10;;;;;;;23.54;42.65;97938.13;5076285;28;20215;-82
2024/04/06 10:37:48;;;;;;;1.20;1.00;;;;;;;23.59;41.60;97926.78;5076553;28;20249;-82
2024/04/06 10:40:14;;;;;;;1.20;1.10;;;;;;;23.69;40.04;97903.84;5075565;28;20223;-82
2024/04/06 10:42:41;;;;;;;1.87;0.90;;;;;;;23.85;38.49;97884.69;5076101;28;20849;-82
2024/04/06 10:45:08;;;;;;;1.30;0.80;;;;;;;23.87;39.29;97896.16;5075558;28;20207;-83
2024/04/06 10:47:36;;;;;;;2.10;0.87;;;;;;;23.90;37.33;97874.16;5074570;28;20708;-83
2024/04/06 10:50:02;;;;;;;0.70;0.70;;;;;;;23.97;35.80;97858.84;5074384;28;20574;-83
2024/04/06 10:52:29;;;;;;;1.20;0.90;;;;;;;24.17;35.76;97865.22;5075262;28;20214;-84
2024/04/06 10:54:55;;;;;;;2.50;1.00;;;;;;;24.22;34.48;97856.53;5074624;28;20229;-83
2024/04/06 10:57:23;;;;;;;1.17;0.90;;;;;;;24.27;33.49;97887.31;5056532;28;20424;-83
2024/04/06 10:59:49;;;;;;;1.57;0.60;;;;;;;24.26;34.64;97907.25;5074702;28;20291;-84
2024/04/06 11:02:17;;;;;;;1.00;0.90;;;;;;;24.32;34.04;97895.66;5075232;28;20250;-85
2024/04/06 11:04:43;;;;;;;1.10;0.80;;;;;;;24.32;33.46;97906.47;5076557;28;20207;-84
2024/04/06 11:07:11;;;;;;;0.87;0.80;;;;;;;24.39;33.87;97896.53;5075736;28;20199;-83
2024/04/06 11:09:37;;;;;;;1.17;0.80;;;;;;;24.56;33.98;97916.00;5074657;28;20717;-83
2024/04/06 11:12:04;;;;;;;3.20;0.90;;;;;;;24.65;34.36;97912.13;5076033;28;20306;-82
2024/04/06 11:14:30;;;;;;;1.30;0.83;;;;;;;24.67;33.78;97910.88;5077074;28;20211;-83
2024/04/06 11:16:56;;;;;;;1.90;0.90;;;;;;;24.73;33.86;97920.06;5079068;28;20215;-83
2024/04/06 11:19:24;;;;;;;2.63;1.00;;;;;;;24.86;33.68;97915.56;5080595;28;20211;-83
2024/04/06 11:21:52;;;;;;;2.83;1.20;;;;;;;24.82;33.11;97892.66;5077000;28;20207;-84
2024/04/06 11:24:17;;;;;;;2.20;1.30;;;;;;;24.90;32.93;97900.59;5076815;28;20207;-84
2024/04/06 11:26:44;;;;;;;1.10;0.80;;;;;;;24.97;34.03;97906.88;5076422;28;20253;-83
2024/04/06 11:29:11;;;;;;;1.60;0.70;;;;;;;25.07;32.91;97893.81;5077014;28;20212;-83
2024/04/06 11:31:37;;;;;;;1.00;0.80;;;;;;;25.06;33.15;97902.94;5076330;28;20249;-84